Time;durP1;ratioP1;P1;durP2;ratioP2;P2;SDS_P1;SDS_P2;PMS_P1;PMS_P2;Temp;Humidity;BMP_temperature;BMP_pressure;BME280_temperature;BME280_humidity;BME280_pressure;Samples;Min_cycle;Max_cycle;Signal;HPM_P1;HPM_P2
2024/04/26 00:01:28;;;;;;;4.70;3.50;;;6.90;99.90;;;;;;5416610;26;20837;-59
2024/04/26 00:03:57;;;;;;;2.97;2.65;;;6.90;99.90;;;;;;5416800;26;20766;-59
2024/04/26 00:06:25;;;;;;;4.80;2.83;;;6.80;99.90;;;;;;5417002;26;20322;-58
2024/04/26 00:08:54;;;;;;;4.30;3.40;;;6.80;99.90;;;;;;5416602;26;20269;-59
2024/04/26 00:11:22;;;;;;;5.07;2.83;;;6.90;99.90;;;;;;5416565;26;20238;-59
2024/04/26 00:13:53;;;;;;;4.75;2.75;;;6.90;99.90;;;;;;5416836;26;20294;-60
2024/04/26 00:16:21;;;;;;;4.88;3.20;;;6.90;99.90;;;;;;5417477;26;20257;-60
2024/04/26 00:18:50;;;;;;;3.50;3.17;;;6.90;99.90;;;;;;5416590;26;20260;-58
2024/04/26 00:21:18;;;;;;;7.10;3.15;;;6.90;99.90;;;;;;5416307;26;20728;-60
2024/04/26 00:23:47;;;;;;;3.13;2.65;;;6.90;99.90;;;;;;5424962;26;20221;-58
2024/04/26 00:26:15;;;;;;;3.28;2.95;;;6.90;99.90;;;;;;5419548;26;20340;-59
2024/04/26 00:28:43;;;;;;;4.00;2.72;;;6.90;99.90;;;;;;5417332;26;20315;-59
2024/04/26 00:31:19;;;;;;;2.83;2.47;;;6.90;99.90;;;;;;5419758;26;20282;-59
2024/04/26 00:33:47;;;;;;;4.72;3.20;;;6.90;99.90;;;;;;5420130;26;20229;-59
2024/04/26 00:36:13;;;;;;;6.00;2.92;;;6.90;99.90;;;;;;5419694;26;20675;-59
2024/04/26 00:38:42;;;;;;;6.33;3.07;;;6.90;99.90;;;;;;5419398;26;20229;-59
2024/04/26 00:41:10;;;;;;;4.72;3.20;;;6.90;99.90;;;;;;5419584;26;20231;-59
2024/04/26 00:43:38;;;;;;;5.00;3.40;;;6.90;99.90;;;;;;5419922;26;20283;-59
2024/04/26 00:46:07;;;;;;;6.40;2.75;;;6.90;99.90;;;;;;5419606;26;20257;-57
2024/04/26 00:48:39;;;;;;;3.47;3.10;;;6.90;99.90;;;;;;5419737;26;20261;-59
2024/04/26 00:51:08;;;;;;;5.25;3.10;;;6.90;99.90;;;;;;5420391;26;20203;-59
2024/04/26 00:53:36;;;;;;;3.92;2.75;;;6.80;99.90;;;;;;5419987;26;20221;-59
2024/04/26 00:56:05;;;;;;;4.47;3.28;;;6.80;99.90;;;;;;5419475;26;20323;-60
2024/04/26 00:58:35;;;;;;;4.03;2.80;;;6.80;99.90;;;;;;5419244;26;20318;-58
2024/04/26 01:01:04;;;;;;;3.72;2.72;;;6.80;99.90;;;;;;5419075;26;20231;-58
2024/04/26 01:03:32;;;;;;;5.35;3.13;;;6.80;99.90;;;;;;5419271;26;20215;-59
2024/04/26 01:06:03;;;;;;;4.95;2.90;;;6.80;99.90;;;;;;5419199;26;20303;-59
2024/04/26 01:08:32;;;;;;;4.68;2.50;;;6.70;99.90;;;;;;5419355;26;20344;-59
2024/04/26 01:11:00;;;;;;;3.67;3.33;;;6.70;99.90;;;;;;5419134;26;20326;-60
2024/04/26 01:13:29;;;;;;;4.20;3.17;;;6.70;99.90;;;;;;5419478;26;20228;-58
2024/04/26 01:15:57;;;;;;;3.10;2.80;;;6.70;99.90;;;;;;5419569;26;20268;-59
2024/04/26 01:18:26;;;;;;;4.32;2.80;;;6.70;99.90;;;;;;5419287;26;20343;-59
2024/04/26 01:20:55;;;;;;;3.70;2.70;;;6.70;99.90;;;;;;5419446;26;20225;-60
2024/04/26 01:23:26;;;;;;;3.38;2.80;;;6.70;99.90;;;;;;5419394;26;20271;-59
2024/04/26 01:26:02;;;;;;;4.32;3.00;;;6.70;99.90;;;;;;5419474;26;20670;-59
2024/04/26 01:28:38;;;;;;;6.20;3.20;;;6.70;99.90;;;;;;5419059;26;20216;-59
2024/04/26 01:31:07;;;;;;;3.63;2.75;;;6.70;99.90;;;;;;5419344;26;20334;-59
2024/04/26 01:33:35;;;;;;;3.75;2.55;;;6.70;99.90;;;;;;5419301;26;20347;-59
2024/04/26 01:36:04;;;;;;;2.92;2.58;;;6.70;99.90;;;;;;5419233;26;20218;-58
2024/04/26 01:38:32;;;;;;;4.80;2.35;;;6.70;99.90;;;;;;5419089;26;20268;-58
2024/04/26 01:41:03;;;;;;;2.70;2.50;;;6.60;99.90;;;;;;5418410;26;20308;-60
2024/04/26 01:43:31;;;;;;;8.00;3.50;;;6.60;99.90;;;;;;5419115;26;20256;-58
2024/04/26 01:46:00;;;;;;;2.75;2.15;;;6.60;99.90;;;;;;5418882;26;20347;-59
2024/04/26 01:48:29;;;;;;;3.95;2.63;;;6.70;99.90;;;;;;5419014;26;20333;-59
2024/04/26 01:50:57;;;;;;;5.80;3.05;;;6.60;99.90;;;;;;5418712;26;20274;-60
2024/04/26 01:53:25;;;;;;;5.50;2.95;;;6.70;99.90;;;;;;5418776;26;20605;-59
2024/04/26 01:55:51;;;;;;;3.97;2.53;;;6.60;99.90;;;;;;5418449;26;20666;-60
2024/04/26 01:58:22;;;;;;;4.30;2.97;;;6.70;99.90;;;;;;5418640;26;20225;-60
2024/04/26 02:00:48;;;;;;;2.75;2.47;;;6.70;99.90;;;;;;5418648;26;20237;-59
2024/04/26 02:03:16;;;;;;;3.37;2.90;;;6.70;99.90;;;;;;5445400;21;20699;-62
2024/04/26 02:05:42;;;;;;;4.60;3.15;;;6.70;99.90;;;;;;5419775;26;20331;-63
2024/04/26 02:08:11;;;;;;;3.40;2.63;;;6.70;99.90;;;;;;5421653;26;20237;-61
2024/04/26 02:10:36;;;;;;;4.50;2.92;;;6.70;99.90;;;;;;5423276;26;20565;-61
2024/04/26 02:13:05;;;;;;;3.40;2.50;;;6.70;99.90;;;;;;5422272;26;20246;-61
2024/04/26 02:15:33;;;;;;;5.47;2.83;;;6.70;99.90;;;;;;5422212;26;20694;-61
2024/04/26 02:18:02;;;;;;;5.43;2.97;;;6.70;99.90;;;;;;5423177;26;20829;-62
2024/04/26 02:20:27;;;;;;;5.10;2.67;;;6.70;99.90;;;;;;5421901;26;20705;-62
2024/04/26 02:22:56;;;;;;;3.97;2.60;;;6.70;99.90;;;;;;5420955;26;20260;-62
2024/04/26 02:25:24;;;;;;;3.15;2.85;;;6.70;99.90;;;;;;5420929;26;20270;-62
2024/04/26 02:27:53;;;;;;;4.25;2.70;;;6.70;99.90;;;;;;5423069;26;20269;-61
2024/04/26 02:30:21;;;;;;;2.88;2.22;;;6.70;99.90;;;;;;5423386;26;20294;-59
2024/04/26 02:32:52;;;;;;;9.07;3.15;;;6.70;99.90;;;;;;5425022;26;20229;-61
2024/04/26 02:35:20;;;;;;;4.55;2.35;;;6.70;99.90;;;;;;5424593;26;20294;-61
2024/04/26 02:37:49;;;;;;;6.60;3.00;;;6.70;99.90;;;;;;5424413;26;20751;-62
2024/04/26 02:40:17;;;;;;;3.55;2.80;;;6.70;99.90;;;;;;5426462;26;20707;-62
2024/04/26 02:42:45;;;;;;;2.63;2.25;;;6.60;99.90;;;;;;5423192;26;20225;-62
2024/04/26 02:45:14;;;;;;;3.75;2.58;;;6.70;99.90;;;;;;5423475;26;20703;-61
2024/04/26 02:47:42;;;;;;;2.65;2.35;;;6.70;99.90;;;;;;5423215;26;20802;-61
2024/04/26 02:50:13;;;;;;;6.00;2.70;;;6.70;99.90;;;;;;5422188;26;20270;-61
2024/04/26 02:52:42;;;;;;;6.00;4.00;;;6.70;99.90;;;;;;5422473;26;20312;-61
2024/04/26 02:55:10;;;;;;;4.70;2.58;;;6.80;99.90;;;;;;5428772;26;20227;-61
2024/04/26 02:57:39;;;;;;;2.58;2.38;;;6.80;99.90;;;;;;5428173;26;20228;-61
2024/04/26 03:00:08;;;;;;;3.28;2.45;;;6.80;99.90;;;;;;5429006;26;20222;-61
2024/04/26 03:02:37;;;;;;;6.47;2.50;;;6.80;99.90;;;;;;5422462;26;20278;-61
2024/04/26 03:05:05;;;;;;;3.88;2.70;;;6.80;99.90;;;;;;5421012;26;20273;-61
2024/04/26 03:07:37;;;;;;;3.40;2.70;;;6.80;99.90;;;;;;5421110;26;20273;-62
2024/04/26 03:10:06;;;;;;;3.20;2.35;;;6.90;99.90;;;;;;5423584;26;20209;-62
2024/04/26 03:12:35;;;;;;;7.00;2.45;;;6.90;99.90;;;;;;5426018;26;20302;-62
2024/04/26 03:15:05;;;;;;;2.33;2.13;;;7.00;99.90;;;;;;5424932;26;20304;-62
2024/04/26 03:17:33;;;;;;;3.13;2.28;;;7.00;99.90;;;;;;5422020;26;20338;-62
2024/04/26 03:20:01;;;;;;;3.20;2.30;;;7.00;99.90;;;;;;5419912;26;20314;-62
2024/04/26 03:22:30;;;;;;;3.80;2.35;;;7.00;99.90;;;;;;5419386;26;20266;-62
2024/04/26 03:25:01;;;;;;;4.90;1.90;;;7.00;99.90;;;;;;5418951;26;20252;-62
2024/04/26 03:27:29;;;;;;;3.38;2.17;;;7.00;99.90;;;;;;5419625;26;20619;-62
2024/04/26 03:29:58;;;;;;;4.13;2.63;;;7.10;99.90;;;;;;5418913;26;20254;-62
2024/04/26 03:32:26;;;;;;;5.95;2.25;;;7.10;99.90;;;;;;5419326;26;20352;-62
2024/04/26 03:34:54;;;;;;;5.35;2.55;;;7.10;99.70;;;;;;5420243;26;20254;-62
2024/04/26 03:37:23;;;;;;;4.18;2.40;;;7.10;99.50;;;;;;5419708;26;20308;-62
2024/04/26 03:39:51;;;;;;;3.10;2.40;;;7.10;99.40;;;;;;5419365;26;20278;-61
2024/04/26 03:42:22;;;;;;;8.18;2.50;;;7.20;99.10;;;;;;5418854;26;20240;-62
2024/04/26 03:44:51;;;;;;;2.33;2.13;;;7.20;98.90;;;;;;5419363;26;20317;-61
2024/04/26 03:47:19;;;;;;;2.50;2.17;;;7.20;98.70;;;;;;5418379;26;20281;-62
2024/04/26 03:49:47;;;;;;;3.53;2.50;;;7.20;98.60;;;;;;5418156;26;20259;-62
2024/04/26 03:52:16;;;;;;;3.10;2.45;;;7.10;98.40;;;;;;5417789;26;20662;-62
2024/04/26 03:54:44;;;;;;;2.90;2.45;;;7.10;98.30;;;;;;5417842;26;20731;-62
2024/04/26 03:57:12;;;;;;;2.45;2.10;;;7.20;98.30;;;;;;5417777;26;20344;-61
2024/04/26 03:59:43;;;;;;;3.28;2.47;;;7.20;98.40;;;;;;5417081;26;20333;-63
2024/04/26 04:02:12;;;;;;;6.82;2.92;;;7.20;98.20;;;;;;5417547;26;20582;-61
2024/04/26 04:04:40;;;;;;;3.50;2.50;;;7.20;98.10;;;;;;5417260;26;20282;-61
2024/04/26 04:07:08;;;;;;;9.02;2.85;;;7.10;98.10;;;;;;5417147;26;20264;-62
2024/04/26 04:09:37;;;;;;;7.20;2.50;;;7.10;98.20;;;;;;5416825;26;20771;-62
2024/04/26 04:13:39;;;;;;;4.05;2.72;;;7.10;98.00;;;;;;5473588;25;20693;-63
2024/04/26 04:16:08;;;;;;;4.00;2.85;;;7.10;98.00;;;;;;5473303;26;20258;-62
2024/04/26 04:18:36;;;;;;;3.53;2.90;;;7.10;98.00;;;;;;5475913;26;20292;-62
2024/04/26 04:21:05;;;;;;;5.93;2.88;;;7.10;98.10;;;;;;5474311;26;20306;-63
2024/04/26 04:23:33;;;;;;;4.35;2.42;;;7.10;97.90;;;;;;5474834;26;20287;-62
2024/04/26 04:26:02;;;;;;;3.35;2.20;;;7.20;98.00;;;;;;5474527;26;20588;-63
2024/04/26 04:28:30;;;;;;;4.22;2.80;;;7.10;97.80;;;;;;5474595;26;20254;-63
2024/04/26 04:31:01;;;;;;;5.45;2.55;;;7.10;97.90;;;;;;5475126;26;20343;-62
2024/04/26 04:33:29;;;;;;;2.42;2.22;;;7.20;97.90;;;;;;5475109;26;20312;-63
2024/04/26 04:35:58;;;;;;;4.15;2.60;;;7.20;97.80;;;;;;5473951;26;20289;-62
2024/04/26 04:38:26;;;;;;;5.75;3.17;;;7.20;97.80;;;;;;5473745;26;20210;-62
2024/04/26 04:40:54;;;;;;;4.35;2.75;;;7.20;97.60;;;;;;5473909;26;20269;-62
2024/04/26 04:43:23;;;;;;;5.30;2.35;;;7.30;97.60;;;;;;5472929;26;20222;-61
2024/04/26 04:45:51;;;;;;;3.25;2.95;;;7.30;97.50;;;;;;5474207;26;20252;-63
2024/04/26 04:48:23;;;;;;;5.10;2.38;;;7.30;97.40;;;;;;5473489;26;20218;-62
2024/04/26 04:50:52;;;;;;;5.07;2.80;;;7.30;97.20;;;;;;5474215;26;20211;-61
2024/04/26 04:53:20;;;;;;;5.15;2.75;;;7.40;97.00;;;;;;5473047;26;20662;-62
2024/04/26 04:55:48;;;;;;;4.65;2.80;;;7.40;96.60;;;;;;5474316;26;20261;-61
2024/04/26 04:58:17;;;;;;;4.53;2.47;;;7.40;96.60;;;;;;5473382;26;20692;-62
2024/04/26 05:00:45;;;;;;;4.05;3.13;;;7.40;96.50;;;;;;5473297;26;20344;-63
2024/04/26 05:03:14;;;;;;;5.00;2.70;;;7.40;96.50;;;;;;5473959;26;20233;-62
2024/04/26 05:05:46;;;;;;;3.28;2.60;;;7.50;96.30;;;;;;5474047;26;20724;-63
2024/04/26 05:08:15;;;;;;;3.83;2.67;;;7.50;96.20;;;;;;5474816;26;20822;-63
2024/04/26 05:10:43;;;;;;;4.57;2.63;;;7.50;96.10;;;;;;5473416;26;20250;-62
2024/04/26 05:13:12;;;;;;;5.95;3.10;;;7.60;96.00;;;;;;5472905;26;20731;-63
2024/04/26 05:15:40;;;;;;;4.15;2.67;;;7.60;95.80;;;;;;5474475;26;20715;-62
2024/04/26 05:18:09;;;;;;;7.47;2.47;;;7.70;95.50;;;;;;5477684;26;20277;-63
2024/04/26 05:20:37;;;;;;;2.90;2.67;;;7.70;95.30;;;;;;5485882;26;20226;-62
2024/04/26 05:23:08;;;;;;;2.30;1.95;;;7.70;95.20;;;;;;5481440;26;20235;-60
2024/04/26 05:25:36;;;;;;;3.38;2.88;;;7.80;95.20;;;;;;5465673;26;20299;-63
2024/04/26 05:28:05;;;;;;;3.00;2.60;;;7.80;95.10;;;;;;5458402;26;20562;-63
2024/04/26 05:30:33;;;;;;;3.30;2.80;;;7.80;95.20;;;;;;5457866;26;20259;-63
2024/04/26 05:33:02;;;;;;;3.13;2.78;;;7.90;95.30;;;;;;5458170;26;20326;-63
2024/04/26 05:35:30;;;;;;;5.28;3.35;;;8.00;95.40;;;;;;5457781;26;20235;-63
2024/04/26 05:37:59;;;;;;;4.32;2.88;;;8.10;95.20;;;;;;5460755;26;20265;-63
2024/04/26 05:40:30;;;;;;;4.97;3.05;;;8.30;95.00;;;;;;5468026;26;20298;-62
2024/04/26 05:42:58;;;;;;;2.40;2.20;;;8.40;94.50;;;;;;5471190;26;20292;-62
2024/04/26 05:45:27;;;;;;;7.03;3.05;;;8.40;93.90;;;;;;5462672;26;20250;-62
2024/04/26 05:47:55;;;;;;;6.40;2.55;;;8.40;94.00;;;;;;5463446;26;20250;-62
2024/04/26 05:50:24;;;;;;;3.92;2.97;;;8.40;94.10;;;;;;5460912;26;20262;-62
2024/04/26 05:52:52;;;;;;;3.25;2.92;;;8.40;94.40;;;;;;5459456;26;20269;-62
2024/04/26 05:55:20;;;;;;;4.03;3.00;;;8.50;94.80;;;;;;5459390;26;20333;-63
2024/04/26 05:57:51;;;;;;;5.55;4.10;;;8.50;95.30;;;;;;5459221;26;20671;-61
2024/04/26 06:00:20;;;;;;;3.35;2.88;;;8.40;95.60;;;;;;5457918;26;20255;-63
2024/04/26 06:02:55;;;;;;;4.45;3.50;;;8.40;96.10;;;;;;5456340;26;20346;-62
2024/04/26 06:05:23;;;;;;;5.35;3.50;;;8.40;96.60;;;;;;5456371;26;20214;-60
2024/04/26 06:07:52;;;;;;;4.90;3.05;;;8.40;96.70;;;;;;5457829;26;20218;-61
2024/04/26 06:10:21;;;;;;;3.77;2.90;;;8.50;97.00;;;;;;5457838;26;20215;-62
2024/04/26 06:12:52;;;;;;;4.80;2.90;;;8.60;97.20;;;;;;5456955;26;20860;-62
2024/04/26 06:15:20;;;;;;;6.50;4.07;;;8.60;97.20;;;;;;5457401;26;20299;-63
2024/04/26 06:17:48;;;;;;;4.93;3.08;;;8.70;97.10;;;;;;5464423;26;20219;-63
2024/04/26 06:20:17;;;;;;;3.63;2.60;;;8.80;96.90;;;;;;5465361;26;20220;-63
2024/04/26 06:22:45;;;;;;;5.80;3.20;;;8.90;96.60;;;;;;5464445;26;20516;-62
2024/04/26 06:25:15;;;;;;;3.80;3.13;;;8.90;96.30;;;;;;5462372;26;20498;-63
2024/04/26 06:27:43;;;;;;;4.10;3.00;;;8.90;96.30;;;;;;5465436;26;20506;-63
2024/04/26 06:30:14;;;;;;;2.77;2.30;;;8.90;96.30;;;;;;5464254;26;20948;-63
2024/04/26 06:32:43;;;;;;;6.07;2.80;;;8.90;96.40;;;;;;5460692;26;20915;-62
2024/04/26 06:35:11;;;;;;;5.03;3.40;;;8.90;96.60;;;;;;5464271;26;20514;-63
2024/04/26 06:37:39;;;;;;;4.83;2.63;;;9.00;96.70;;;;;;5469473;26;20446;-61
2024/04/26 06:40:09;;;;;;;9.97;3.50;;;9.20;96.60;;;;;;5465733;26;20600;-62
2024/04/26 06:42:37;;;;;;;5.53;3.30;;;9.40;96.20;;;;;;5461939;26;20516;-63
2024/04/26 06:45:06;;;;;;;5.03;2.80;;;9.60;95.30;;;;;;5455482;26;20452;-63
2024/04/26 06:47:38;;;;;;;4.90;2.90;;;9.80;94.60;;;;;;5456178;26;20947;-62
2024/04/26 06:50:07;;;;;;;2.97;2.43;;;9.80;94.10;;;;;;5455349;26;20502;-62
2024/04/26 06:52:36;;;;;;;4.50;3.17;;;9.90;93.40;;;;;;5455379;26;20530;-62
2024/04/26 06:55:04;;;;;;;3.90;2.80;;;9.90;92.60;;;;;;5458769;26;20505;-62
2024/04/26 06:57:34;;;;;;;3.43;3.00;;;10.00;91.70;;;;;;5458905;26;20470;-62
2024/04/26 07:00:02;;;;;;;5.20;3.10;;;10.00;91.20;;;;;;5460798;26;20435;-62
2024/04/26 07:02:30;;;;;;;4.60;2.40;;;10.00;90.60;;;;;;5463903;26;20474;-62
2024/04/26 07:05:01;;;;;;;6.80;2.80;;;10.00;90.20;;;;;;5455546;26;20559;-60
2024/04/26 07:07:30;;;;;;;3.90;2.67;;;10.10;89.40;;;;;;5454660;26;20557;-62
2024/04/26 07:09:58;;;;;;;5.37;3.10;;;10.00;87.70;;;;;;5455346;26;20585;-63
2024/04/26 07:12:27;;;;;;;2.67;2.43;;;9.90;88.10;;;;;;5454730;26;20467;-60
2024/04/26 07:14:55;;;;;;;5.37;3.10;;;9.90;87.50;;;;;;5455804;26;20516;-64
2024/04/26 07:17:23;;;;;;;2.93;2.50;;;10.00;85.60;;;;;;5455284;26;20446;-63
2024/04/26 07:19:52;;;;;;;6.40;3.43;;;10.00;84.70;;;;;;5454901;26;20547;-63
2024/04/26 07:22:23;;;;;;;6.03;3.20;;;10.00;83.70;;;;;;5455330;26;20466;-62
2024/04/26 07:24:53;;;;;;;3.70;3.40;;;9.90;84.00;;;;;;5457107;26;20526;-63
2024/04/26 07:27:22;;;;;;;4.97;2.80;;;10.00;82.40;;;;;;5457008;26;20502;-63
2024/04/26 07:29:50;;;;;;;5.03;3.00;;;10.00;81.60;;;;;;5454153;26;20624;-62
2024/04/26 07:32:19;;;;;;;8.77;3.33;;;10.20;81.10;;;;;;5456260;26;20547;-62
2024/04/26 07:34:47;;;;;;;3.70;3.00;;;10.20;80.10;;;;;;5454586;26;20574;-62
2024/04/26 07:37:16;;;;;;;5.23;3.30;;;10.30;79.00;;;;;;5455446;26;20581;-62
2024/04/26 07:39:47;;;;;;;4.67;3.33;;;10.40;78.20;;;;;;5455275;26;20518;-62
2024/04/26 07:42:15;;;;;;;5.03;3.60;;;10.50;77.40;;;;;;5454380;26;20462;-63
2024/04/26 07:44:43;;;;;;;5.13;3.10;;;10.60;76.70;;;;;;5453824;26;20458;-61
2024/04/26 07:47:14;;;;;;;6.70;3.03;;;10.60;76.20;;;;;;5453453;26;20499;-62
2024/04/26 07:49:43;;;;;;;4.30;3.30;;;10.70;75.70;;;;;;5453504;26;20458;-61
2024/04/26 07:52:11;;;;;;;4.20;3.43;;;10.80;74.90;;;;;;5454606;26;21012;-62
2024/04/26 07:54:40;;;;;;;7.90;3.20;;;10.80;74.50;;;;;;5453609;26;20451;-64
2024/04/26 07:57:11;;;;;;;6.90;3.73;;;10.80;73.80;;;;;;5452770;26;20568;-62
2024/04/26 07:59:39;;;;;;;3.50;2.60;;;10.80;73.40;;;;;;5453342;26;20511;-62
2024/04/26 08:02:08;;;;;;;6.93;3.23;;;10.90;73.40;;;;;;5454035;26;20920;-62
2024/04/26 08:04:37;;;;;;;4.90;3.10;;;11.00;73.20;;;;;;5453630;26;20806;-62
2024/04/26 08:07:09;;;;;;;5.77;2.83;;;11.10;72.60;;;;;;5453533;26;20497;-62
2024/04/26 08:09:37;;;;;;;4.70;3.70;;;11.30;72.00;;;;;;5453203;26;20456;-63
2024/04/26 08:12:06;;;;;;;4.73;2.40;;;11.40;71.30;;;;;;5454358;26;20531;-64
2024/04/26 08:14:37;;;;;;;4.07;3.03;;;11.50;70.90;;;;;;5453755;26;20563;-63
2024/04/26 08:17:06;;;;;;;4.83;3.33;;;11.60;70.20;;;;;;5455353;26;20527;-62
2024/04/26 08:19:35;;;;;;;4.97;3.07;;;11.80;69.80;;;;;;5455594;26;20507;-62
2024/04/26 08:22:03;;;;;;;5.63;2.60;;;11.90;69.00;;;;;;5455143;26;20534;-63
2024/04/26 08:24:31;;;;;;;4.47;2.67;;;12.10;68.20;;;;;;5453033;26;20860;-63
2024/04/26 08:27:00;;;;;;;5.03;2.97;;;12.30;67.20;;;;;;5452911;26;21127;-63
2024/04/26 08:29:30;;;;;;;3.87;3.03;;;12.30;66.30;;;;;;5452995;26;20845;-62
2024/04/26 08:32:01;;;;;;;10.60;3.30;;;12.40;65.70;;;;;;5453141;26;20543;-62
2024/04/26 08:34:30;;;;;;;5.80;2.27;;;12.40;65.00;;;;;;5453226;26;20605;-63
2024/04/26 08:36:58;;;;;;;6.40;3.27;;;12.40;64.20;;;;;;5453177;26;20515;-62
2024/04/26 08:39:27;;;;;;;6.27;3.17;;;12.30;63.20;;;;;;5453277;26;20590;-63
2024/04/26 08:41:56;;;;;;;9.30;3.27;;;12.20;62.40;;;;;;5452883;26;20527;-63
2024/04/26 08:44:24;;;;;;;6.57;3.00;;;12.10;62.30;;;;;;5453097;26;20591;-62
2024/04/26 08:46:56;;;;;;;4.60;2.87;;;12.20;62.40;;;;;;5453480;26;21044;-63
2024/04/26 08:49:28;;;;;;;4.63;3.17;;;12.20;61.60;;;;;;5453588;26;20564;-62
2024/04/26 08:51:57;;;;;;;4.33;3.10;;;12.10;61.40;;;;;;5453682;26;20557;-63
2024/04/26 08:54:26;;;;;;;7.07;3.53;;;12.10;61.30;;;;;;5452490;26;20534;-63
2024/04/26 08:57:02;;;;;;;8.90;4.40;;;12.10;61.40;;;;;;5453449;26;20452;-63
2024/04/26 08:59:36;;;;;;;5.67;3.20;;;12.20;61.20;;;;;;5456297;26;20495;-64
2024/04/26 09:02:06;;;;;;;7.00;3.33;;;12.10;61.00;;;;;;5458340;26;20466;-63
2024/04/26 09:04:38;;;;;;;4.43;3.37;;;12.10;60.80;;;;;;5458517;26;20954;-63
2024/04/26 09:07:08;;;;;;;5.37;2.73;;;12.10;61.00;;;;;;5459893;26;20439;-63
2024/04/26 09:09:37;;;;;;;3.13;2.83;;;12.10;61.00;;;;;;5458105;26;20866;-64
2024/04/26 09:12:03;;;;;;;7.23;3.20;;;12.10;60.60;;;;;;5457708;26;20523;-62
2024/04/26 09:14:31;;;;;;;4.33;2.80;;;12.20;60.50;;;;;;5456845;26;20455;-64
2024/04/26 09:17:00;;;;;;;3.07;2.77;;;12.10;60.10;;;;;;5456485;26;20454;-63
2024/04/26 09:19:28;;;;;;;5.03;3.17;;;12.10;60.00;;;;;;5456464;26;20447;-63
2024/04/26 09:22:01;;;;;;;5.10;3.17;;;12.00;60.10;;;;;;5456014;26;20567;-62
2024/04/26 09:24:29;;;;;;;6.73;3.77;;;12.10;60.50;;;;;;5455738;26;20455;-64
2024/04/26 09:26:58;;;;;;;5.73;3.30;;;12.20;60.30;;;;;;5455386;26;20561;-65
2024/04/26 09:29:27;;;;;;;5.33;3.03;;;12.30;60.00;;;;;;5455428;26;20511;-62
2024/04/26 09:32:01;;;;;;;5.47;3.40;;;12.40;59.50;;;;;;5455822;26;20610;-62
2024/04/26 09:34:31;;;;;;;3.67;2.80;;;12.40;59.20;;;;;;5455853;26;20542;-65
2024/04/26 09:37:02;;;;;;;5.13;3.00;;;12.30;58.90;;;;;;5455478;26;20497;-62
2024/04/26 09:39:32;;;;;;;5.20;3.77;;;12.30;58.90;;;;;;5455442;26;20560;-62
2024/04/26 09:42:01;;;;;;;3.90;3.33;;;12.30;58.90;;;;;;5455734;26;21110;-63
2024/04/26 09:44:30;;;;;;;6.20;3.73;;;12.30;58.60;;;;;;5455532;26;20568;-61
2024/04/26 09:47:01;;;;;;;6.23;3.50;;;12.40;58.60;;;;;;5455472;26;20563;-64
2024/04/26 09:49:30;;;;;;;6.00;3.80;;;12.40;58.20;;;;;;5455169;26;20444;-64
2024/04/26 09:51:59;;;;;;;7.90;3.60;;;12.40;57.80;;;;;;5455100;26;20519;-66
2024/04/26 09:54:32;;;;;;;5.77;3.40;;;12.40;57.70;;;;;;5454604;26;20471;-65
2024/04/26 09:57:01;;;;;;;5.50;2.83;;;12.40;57.80;;;;;;5454643;26;20571;-65
2024/04/26 09:59:30;;;;;;;5.30;3.30;;;12.50;57.70;;;;;;5455030;26;20455;-64
2024/04/26 10:01:59;;;;;;;4.40;3.07;;;12.60;57.50;;;;;;5454249;26;21073;-63
2024/04/26 10:04:28;;;;;;;4.60;3.00;;;12.50;57.10;;;;;;5454772;26;20514;-64
2024/04/26 10:06:56;;;;;;;6.23;3.53;;;12.40;57.10;;;;;;5454502;26;20526;-63
2024/04/26 10:09:28;;;;;;;6.63;3.40;;;12.50;57.50;;;;;;5454718;26;20451;-63
2024/04/26 10:11:59;;;;;;;3.47;3.17;;;12.60;57.30;;;;;;5454188;26;20471;-64
2024/04/26 10:14:28;;;;;;;6.57;3.57;;;12.80;57.20;;;;;;5454877;26;20455;-62
2024/04/26 10:17:08;;;;;;;6.97;3.17;;;12.90;56.80;;;;;;5455056;26;20534;-62
2024/04/26 10:19:36;;;;;;;5.40;3.50;;;12.90;56.30;;;;;;5455189;26;20987;-64
2024/04/26 10:22:05;;;;;;;6.40;3.77;;;13.00;56.40;;;;;;5457324;26;20527;-62
2024/04/26 10:24:38;;;;;;;5.30;3.57;;;13.10;56.30;;;;;;5465434;26;20590;-64
2024/04/26 10:27:10;;;;;;;6.60;3.20;;;13.20;56.00;;;;;;5467765;26;20443;-63
2024/04/26 10:29:38;;;;;;;4.00;3.00;;;13.20;55.80;;;;;;5464018;26;20503;-64
2024/04/26 10:32:05;;;;;;;6.47;3.60;;;13.40;55.60;;;;;;5462040;26;20580;-64
2024/04/26 10:34:35;;;;;;;6.47;3.30;;;13.50;55.20;;;;;;5461612;26;20515;-63
2024/04/26 10:37:04;;;;;;;6.37;3.33;;;13.60;55.00;;;;;;5463901;26;20443;-64
2024/04/26 10:39:33;;;;;;;7.50;3.57;;;13.60;54.70;;;;;;5468480;26;20448;-62
2024/04/26 10:42:02;;;;;;;5.67;3.50;;;13.70;54.80;;;;;;5459554;26;21015;-62
2024/04/26 10:44:34;;;;;;;5.57;4.30;;;13.70;54.60;;;;;;5457026;26;20440;-63
2024/04/26 10:47:03;;;;;;;6.13;4.27;;;13.60;55.20;;;;;;5454433;26;20507;-63
2024/04/26 10:49:33;;;;;;;8.00;4.63;;;13.50;54.70;;;;;;5454699;26;20460;-64
2024/04/26 10:52:02;;;;;;;6.60;3.80;;;13.50;54.90;;;;;;5454187;26;20476;-64
2024/04/26 10:54:31;;;;;;;7.60;4.10;;;13.40;54.90;;;;;;5454248;26;20988;-64
2024/04/26 10:57:00;;;;;;;5.33;3.97;;;13.50;55.40;;;;;;5454081;26;20511;-61
2024/04/26 10:59:30;;;;;;;5.13;3.47;;;13.40;54.60;;;;;;5454418;26;20449;-63
2024/04/26 11:02:02;;;;;;;5.13;3.27;;;13.30;54.50;;;;;;5455240;26;20467;-62
2024/04/26 11:04:33;;;;;;;6.80;3.20;;;13.20;54.50;;;;;;5455403;26;20490;-61
2024/04/26 11:07:13;;;;;;;4.93;4.43;;;13.00;54.60;;;;;;5454719;26;20447;-63
2024/04/26 11:09:47;;;;;;;9.60;4.13;;;12.80;56.20;;;;;;5454576;26;21118;-64
2024/04/26 11:12:16;;;;;;;9.70;5.03;;;12.50;57.80;;;;;;5455733;26;20573;-63
2024/04/26 11:14:44;;;;;;;6.80;4.50;;;12.20;59.30;;;;;;5455095;26;21063;-61
2024/04/26 11:17:15;;;;;;;6.53;4.87;;;11.90;60.70;;;;;;5455049;26;20581;-62
2024/04/26 11:19:44;;;;;;;7.87;4.60;;;11.80;63.10;;;;;;5455738;26;20522;-59
2024/04/26 11:22:12;;;;;;;7.50;5.20;;;11.60;65.60;;;;;;5454387;26;20591;-62
2024/04/26 11:24:41;;;;;;;7.10;4.67;;;11.30;70.70;;;;;;5454268;26;21016;-63
2024/04/26 11:27:11;;;;;;;6.40;5.20;;;11.00;76.60;;;;;;5454673;26;20800;-61
2024/04/26 11:29:40;;;;;;;7.97;6.33;;;10.80;82.50;;;;;;5454811;26;20980;-61
2024/04/26 11:32:08;;;;;;;7.80;6.10;;;10.70;88.20;;;;;;5454341;26;20630;-62
2024/04/26 11:34:39;;;;;;;6.73;5.90;;;10.60;91.50;;;;;;5454893;26;20448;-62
2024/04/26 11:37:08;;;;;;;7.50;5.97;;;10.50;93.30;;;;;;5454485;26;20920;-62
2024/04/26 11:39:36;;;;;;;8.73;5.73;;;10.40;94.90;;;;;;5454978;26;20439;-63
2024/04/26 11:42:05;;;;;;;7.60;5.67;;;10.20;96.10;;;;;;5454441;26;20572;-62
2024/04/26 11:44:33;;;;;;;9.27;6.60;;;10.10;97.80;;;;;;5454596;26;20848;-62
2024/04/26 11:47:02;;;;;;;7.30;5.50;;;9.90;99.40;;;;;;5453608;26;21080;-62
2024/04/26 11:49:31;;;;;;;10.90;6.13;;;9.90;99.90;;;;;;5453649;26;20518;-61
2024/04/26 11:52:02;;;;;;;9.47;6.63;;;9.80;99.90;;;;;;5454212;26;20465;-61
2024/04/26 11:54:30;;;;;;;7.97;5.60;;;9.80;99.90;;;;;;5453880;26;20902;-61
2024/04/26 11:56:59;;;;;;;9.70;5.57;;;9.70;99.90;;;;;;5453926;26;20519;-63
2024/04/26 11:59:27;;;;;;;9.63;6.93;;;9.60;99.90;;;;;;5454287;26;20692;-63
2024/04/26 12:01:55;;;;;;;8.60;6.37;;;9.50;99.90;;;;;;5454304;26;20468;-65
2024/04/26 12:04:24;;;;;;;10.47;6.40;;;9.40;99.90;;;;;;5453945;26;20561;-63
2024/04/26 12:06:52;;;;;;;9.13;6.77;;;9.20;99.90;;;;;;5453309;26;20460;-62
2024/04/26 12:09:23;;;;;;;8.55;6.15;;;9.20;99.90;;;;;;5453773;26;20792;-63
2024/04/26 12:11:52;;;;;;;11.95;6.28;;;9.10;99.90;;;;;;5453246;26;20333;-65
2024/04/26 12:14:20;;;;;;;14.60;6.60;;;9.00;99.90;;;;;;5454255;26;20234;-63
2024/04/26 12:16:49;;;;;;;9.77;7.70;;;8.90;99.90;;;;;;5453278;26;20214;-62
2024/04/26 12:19:19;;;;;;;10.73;6.78;;;8.90;99.90;;;;;;5453777;26;20210;-64
2024/04/26 12:21:49;;;;;;;10.30;7.40;;;8.90;99.90;;;;;;5453797;26;20271;-61
2024/04/26 12:24:17;;;;;;;8.65;7.25;;;8.80;99.90;;;;;;5453857;26;20300;-61
2024/04/26 12:26:48;;;;;;;7.35;6.57;;;8.80;99.90;;;;;;5453104;26;20408;-61
2024/04/26 12:29:22;;;;;;;8.00;6.72;;;8.80;99.90;;;;;;5452997;26;20304;-63
2024/04/26 12:31:52;;;;;;;9.95;7.88;;;8.80;99.90;;;;;;5455558;26;20278;-63
2024/04/26 12:34:21;;;;;;;8.70;7.00;;;8.90;99.90;;;;;;5457255;26;20279;-62
2024/04/26 12:36:49;;;;;;;11.82;7.35;;;9.00;99.90;;;;;;5457624;26;20212;-62
2024/04/26 12:39:18;;;;;;;8.77;6.57;;;9.00;99.90;;;;;;5458508;26;20298;-62
2024/04/26 12:41:49;;;;;;;13.02;7.00;;;9.10;99.90;;;;;;5456497;26;20266;-64
2024/04/26 12:44:17;;;;;;;12.03;7.17;;;9.10;99.90;;;;;;5457346;26;20243;-63
2024/04/26 12:46:45;;;;;;;13.00;6.97;;;9.20;99.90;;;;;;5459617;26;20562;-62
2024/04/26 12:49:17;;;;;;;12.47;7.50;;;9.20;99.90;;;;;;5457048;26;20758;-60
2024/04/26 12:51:46;;;;;;;9.90;7.57;;;9.30;99.90;;;;;;5457948;26;20845;-64
2024/04/26 12:54:14;;;;;;;9.13;6.80;;;9.30;99.90;;;;;;5457883;26;20569;-63
2024/04/26 12:56:43;;;;;;;12.07;7.57;;;9.30;99.90;;;;;;5458411;26;20453;-62
2024/04/26 12:59:14;;;;;;;8.90;6.75;;;9.30;99.90;;;;;;5460545;26;20555;-65
2024/04/26 13:01:42;;;;;;;9.98;8.35;;;9.30;99.90;;;;;;5458940;26;20223;-64
2024/04/26 13:04:11;;;;;;;9.73;7.13;;;9.30;99.90;;;;;;5457714;26;20753;-64